Time;durP1;ratioP1;P1;durP2;ratioP2;P2;SDS_P1;SDS_P2;PMS_P1;PMS_P2;Temp;Humidity;BMP_temperature;BMP_pressure;BME280_temperature;BME280_humidity;BME280_pressure;Samples;Min_cycle;Max_cycle;Signal;HPM_P1;HPM_P2
2023/12/25 00:01:39;;;;;;;;;2.00;1.00;;;;;11.60;100.00;100320.72;4951633;29;9469;-68
2023/12/25 00:04:06;;;;;;;;;3.25;2.75;;;;;11.53;100.00;100325.28;4957668;28;10274;-68
2023/12/25 00:06:32;;;;;;;;;3.25;3.00;;;;;11.51;100.00;100322.81;4942536;29;9417;-66
2023/12/25 00:08:59;;;;;;;;;3.50;3.00;;;;;11.46;100.00;100329.88;4933949;28;9605;-70
2023/12/25 00:11:26;;;;;;;;;1.75;1.75;;;;;11.50;100.00;100317.63;4937369;28;9457;-68
2023/12/25 00:13:54;;;;;;;;;5.00;3.00;;;;;11.53;100.00;100320.72;4949044;28;9539;-67
2023/12/25 00:16:25;;;;;;;;;1.75;1.75;;;;;11.56;100.00;100324.88;4953338;28;9415;-67
2023/12/25 00:18:55;;;;;;;;;3.00;2.00;;;;;11.52;100.00;100329.03;4936191;28;9685;-67
2023/12/25 00:21:21;;;;;;;;;7.00;3.00;;;;;11.44;100.00;100340.88;4937814;28;9419;-66
2023/12/25 00:23:48;;;;;;;;;3.00;2.00;;;;;11.45;100.00;100342.53;4938028;28;9631;-66
2023/12/25 00:26:14;;;;;;;;;2.50;2.50;;;;;11.50;100.00;100341.88;4948621;28;9414;-66
2023/12/25 00:28:41;;;;;;;;;4.25;3.25;;;;;11.42;100.00;100345.63;4941843;28;9414;-66
2023/12/25 00:31:08;;;;;;;;;2.25;2.25;;;;;11.39;100.00;100346.09;4932991;28;9399;-69
2023/12/25 00:33:34;;;;;;;;;2.00;2.00;;;;;11.41;100.00;100346.69;4934573;28;9424;-68
2023/12/25 00:36:01;;;;;;;;;1.33;1.33;;;;;11.45;100.00;100349.78;4951668;28;9567;-68
2023/12/25 00:38:28;;;;;;;;;2.00;1.67;;;;;11.38;100.00;100342.56;4933027;28;9345;-67
2023/12/25 00:40:55;;;;;;;;;1.50;1.00;;;;;11.42;100.00;100339.41;4937717;28;9401;-66
2023/12/25 00:43:21;;;;;;;;;2.67;1.00;;;;;11.50;100.00;100347.28;4937473;28;9496;-69
2023/12/25 00:45:51;;;;;;;;;3.00;2.00;;;;;11.40;100.00;100331.56;4951222;28;9500;-67
2023/12/25 00:48:17;;;;;;;;;5.00;3.00;;;;;11.38;100.00;100339.00;4942279;28;9571;-67
2023/12/25 00:50:44;;;;;;;;;3.75;2.25;;;;;11.44;100.00;100348.97;4936607;28;10244;-66
2023/12/25 00:53:12;;;;;;;;;4.00;2.00;;;;;11.44;100.00;100351.66;4936822;28;9470;-68
2023/12/25 00:55:38;;;;;;;;;2.50;2.50;;;;;11.47;100.00;100336.94;4935408;28;9424;-69
2023/12/25 00:58:05;;;;;;;;;2.00;2.00;;;;;11.54;100.00;100343.94;4946766;28;9485;-66
2023/12/25 01:00:32;;;;;;;;;2.67;0.00;;;;;11.60;100.00;100332.31;4954350;28;9425;-68
2023/12/25 01:02:59;;;;;;;;;5.75;3.00;;;;;11.56;100.00;100339.19;4937105;28;9542;-68
2023/12/25 01:05:25;;;;;;;;;2.00;2.00;;;;;11.56;100.00;100344.56;4951030;28;9462;-68
2023/12/25 01:07:52;;;;;;;;;2.00;2.00;;;;;11.52;100.00;100345.22;4933059;28;9455;-67
2023/12/25 01:10:19;;;;;;;;;2.00;0.75;;;;;11.50;100.00;100340.00;4938034;28;9480;-69
2023/12/25 01:12:45;;;;;;;;;1.25;1.25;;;;;11.51;100.00;100343.56;4943421;28;9395;-69
2023/12/25 01:15:12;;;;;;;;;2.75;2.50;;;;;11.48;100.00;100346.69;4952256;28;9571;-66
2023/12/25 01:17:38;;;;;;;;;6.50;5.00;;;;;11.47;100.00;100358.50;4916600;28;9574;-69
2023/12/25 01:20:06;;;;;;;;;3.75;2.75;;;;;11.48;100.00;100346.69;4936363;28;9424;-68
2023/12/25 01:22:33;;;;;;;;;3.00;2.25;;;;;11.50;99.66;100360.75;4935945;28;9630;-69
2023/12/25 01:24:59;;;;;;;;;2.00;0.67;;;;;11.55;99.30;100358.28;4942018;28;9663;-69
2023/12/25 01:27:26;;;;;;;;;3.33;3.00;;;;;11.57;99.06;100365.09;4939954;29;9382;-69
2023/12/25 01:29:52;;;;;;;;;2.67;1.00;;;;;11.59;98.35;100367.59;4953066;28;9483;-68
2023/12/25 01:32:19;;;;;;;;;2.67;1.33;;;;;11.57;98.20;100364.25;4936476;28;9407;-68
2023/12/25 01:34:46;;;;;;;;;2.00;2.00;;;;;11.51;98.29;100379.44;4935012;28;9313;-68
2023/12/25 01:37:12;;;;;;;;;4.50;3.00;;;;;11.46;98.17;100379.22;4953262;28;9411;-67
2023/12/25 01:39:39;;;;;;;;;6.50;4.00;;;;;11.51;97.87;100387.50;4953649;28;9498;-67
2023/12/25 01:42:06;;;;;;;;;2.00;2.00;;;;;11.50;97.87;100377.75;4936518;28;9566;-67
2023/12/25 01:44:32;;;;;;;;;2.00;2.00;;;;;11.56;97.66;100381.47;4918309;28;9409;-67
2023/12/25 01:47:00;;;;;;;;;2.00;2.00;;;;;11.60;97.73;100380.84;4947992;29;9274;-68
2023/12/25 01:49:27;;;;;;;;;2.67;2.67;;;;;11.57;97.78;100372.34;4949197;28;9390;-68
2023/12/25 01:51:54;;;;;;;;;8.00;3.00;;;;;11.48;97.77;100355.59;4952810;28;9242;-67
2023/12/25 01:54:21;;;;;;;;;0.67;0.67;;;;;11.52;97.68;100354.13;4934651;28;9260;-67
2023/12/25 01:56:48;;;;;;;;;4.25;2.50;;;;;11.55;97.44;100369.88;4951022;28;9381;-67
2023/12/25 01:59:14;;;;;;;;;2.50;2.00;;;;;11.51;97.13;100362.44;4914514;28;9571;-68
2023/12/25 02:01:41;;;;;;;;;2.00;2.00;;;;;11.50;97.25;100366.16;4935719;28;9602;-66
2023/12/25 02:04:08;;;;;;;;;1.67;1.67;;;;;11.50;97.32;100364.28;4953329;28;9343;-69
2023/12/25 02:06:34;;;;;;;;;0.33;0.33;;;;;11.56;97.34;100376.91;4934616;28;9617;-70
2023/12/25 02:09:02;;;;;;;;;2.75;1.50;;;;;11.60;97.57;100390.81;4945547;28;9332;-70
2023/12/25 02:11:29;;;;;;;;;1.33;1.33;;;;;11.64;97.98;100397.44;4935993;28;9496;-65
2023/12/25 02:13:59;;;;;;;;;2.00;2.00;;;;;11.61;98.31;100393.28;4947358;28;9602;-70
2023/12/25 02:16:25;;;;;;;;;2.25;2.25;;;;;11.59;98.81;100400.75;4937940;28;9511;-66
2023/12/25 02:18:52;;;;;;;;;1.50;1.50;;;;;11.57;99.25;100408.22;4934404;28;9572;-67
2023/12/25 02:21:19;;;;;;;;;4.25;2.00;;;;;11.54;100.00;100402.41;4939522;28;9552;-68
2023/12/25 02:23:49;;;;;;;;;1.50;1.50;;;;;11.50;100.00;100395.78;4931959;28;10216;-68
2023/12/25 02:26:17;;;;;;;;;2.00;2.00;;;;;11.47;100.00;100377.38;4951432;28;9405;-69
2023/12/25 02:28:43;;;;;;;;;2.75;1.00;;;;;11.49;100.00;100375.28;4930106;28;9423;-65
2023/12/25 02:31:10;;;;;;;;;1.50;1.50;;;;;11.47;100.00;100377.38;4952837;28;9383;-66
2023/12/25 02:33:37;;;;;;;;;1.33;1.00;;;;;11.50;100.00;100391.22;4957456;28;9560;-68
2023/12/25 02:36:04;;;;;;;;;1.00;1.00;;;;;11.56;100.00;100376.91;4946079;28;9423;-65
2023/12/25 02:38:31;;;;;;;;;1.00;1.00;;;;;11.57;100.00;100375.88;4937923;28;9600;-67
2023/12/25 02:40:57;;;;;;;;;2.00;2.00;;;;;11.56;100.00;100397.66;4935678;28;9500;-66
2023/12/25 02:43:24;;;;;;;;;5.25;2.00;;;;;11.48;100.00;100385.22;4945524;28;9422;-67
2023/12/25 02:45:51;;;;;;;;;4.25;2.00;;;;;11.43;100.00;100390.44;4952635;28;9606;-68
2023/12/25 02:48:19;;;;;;;;;6.00;1.00;;;;;11.39;100.00;100400.81;4931586;28;9506;-66
2023/12/25 02:50:46;;;;;;;;;3.50;2.00;;;;;11.41;100.00;100405.16;4951859;28;9586;-66
2023/12/25 02:53:12;;;;;;;;;5.00;5.00;;;;;11.44;100.00;100416.34;4951557;28;9597;-71
2023/12/25 02:55:39;;;;;;;;;4.00;1.00;;;;;11.43;100.00;100405.78;4947198;28;10368;-69
2023/12/25 02:58:06;;;;;;;;;4.25;1.50;;;;;11.47;100.00;100407.03;4924876;28;9692;-70
2023/12/25 03:00:32;;;;;;;;;3.00;2.00;;;;;11.43;100.00;100425.47;4952573;28;9531;-68
2023/12/25 03:02:59;;;;;;;;;3.00;2.33;;;;;11.44;100.00;100426.31;4935095;28;9335;-69
2023/12/25 03:05:25;;;;;;;;;4.50;3.50;;;;;11.38;100.00;100419.84;4952321;28;9357;-68
2023/12/25 03:07:52;;;;;;;;;2.75;2.00;;;;;11.37;100.00;100402.03;4948853;28;9521;-69
2023/12/25 03:10:19;;;;;;;;;5.25;3.00;;;;;11.36;100.00;100414.69;4952315;29;9412;-70
2023/12/25 03:12:45;;;;;;;;;3.00;1.75;;;;;11.43;100.00;100416.56;4933581;29;9566;-68
2023/12/25 03:15:12;;;;;;;;;3.00;3.00;;;;;11.49;100.00;100415.72;4923121;28;9603;-69
2023/12/25 03:17:38;;;;;;;;;4.75;3.00;;;;;11.40;100.00;100404.31;4938676;29;9600;-69
2023/12/25 03:20:06;;;;;;;;;7.00;1.33;;;;;11.34;100.00;100413.22;4933968;29;9520;-70
2023/12/25 03:22:32;;;;;;;;;2.00;1.00;;;;;11.34;100.00;100418.63;4938724;28;9423;-69
2023/12/25 03:25:00;;;;;;;;;7.00;1.33;;;;;11.23;100.00;100411.19;4949996;29;9260;-70
2023/12/25 03:27:27;;;;;;;;;4.00;2.67;;;;;11.29;100.00;100434.59;4940572;28;9548;-70
2023/12/25 03:29:53;;;;;;;;;3.50;2.00;;;;;11.31;100.00;100427.97;4941543;28;9319;-70
2023/12/25 03:32:20;;;;;;;;;2.50;1.00;;;;;11.36;100.00;100422.78;4960117;28;9534;-68
2023/12/25 03:34:48;;;;;;;;;2.00;2.00;;;;;11.31;100.00;100414.50;4935388;29;9508;-69
2023/12/25 03:37:15;;;;;;;;;6.00;2.00;;;;;11.32;100.00;100415.31;4948076;29;9568;-69
2023/12/25 03:39:42;;;;;;;;;3.75;1.00;;;;;11.31;100.00;100409.13;4950334;28;9402;-70
2023/12/25 03:42:08;;;;;;;;;1.67;1.67;;;;;11.30;100.00;100423.63;4950688;29;9479;-69
2023/12/25 03:44:35;;;;;;;;;3.00;2.67;;;;;11.26;100.00;100411.63;4935894;28;9173;-69
2023/12/25 03:47:02;;;;;;;;;2.67;1.00;;;;;11.30;99.99;100409.31;4951777;28;9494;-70
2023/12/25 03:49:29;;;;;;;;;1.00;1.00;;;;;11.29;99.80;100400.41;4938180;28;9432;-69
2023/12/25 03:51:56;;;;;;;;;2.33;2.33;;;;;11.35;99.86;100406.84;4936911;28;9399;-70
2023/12/25 03:54:23;;;;;;;;;6.75;2.00;;;;;11.36;99.57;100416.56;4955577;28;9398;-70
2023/12/25 03:56:49;;;;;;;;;2.00;2.00;;;;;11.40;99.59;100431.28;4930690;28;9491;-66
2023/12/25 03:59:16;;;;;;;;;0.75;0.75;;;;;11.41;99.26;100426.72;4937807;28;9515;-68
2023/12/25 04:01:43;;;;;;;;;2.00;2.00;;;;;11.40;99.30;100433.97;4937503;28;9574;-68
2023/12/25 04:04:09;;;;;;;;;2.50;1.50;;;;;11.37;99.34;100429.81;4937831;28;9562;-68
2023/12/25 04:06:35;;;;;;;;;5.00;2.75;;;;;11.39;99.53;100427.75;4938655;28;9567;-68
2023/12/25 04:09:04;;;;;;;;;4.25;2.00;;;;;11.38;99.65;100447.66;4940157;28;9504;-68
2023/12/25 04:11:30;;;;;;;;;2.75;2.00;;;;;11.41;99.60;100442.88;4939612;28;9552;-67
2023/12/25 04:13:58;;;;;;;;;1.00;1.00;;;;;11.45;99.30;100446.81;4937891;28;9576;-68
2023/12/25 04:16:29;;;;;;;;;2.00;0.33;;;;;11.41;99.23;100446.41;4952121;28;9253;-67
2023/12/25 04:18:55;;;;;;;;;7.00;2.00;;;;;11.43;99.41;100438.94;4938004;28;9393;-67
2023/12/25 04:21:27;;;;;;;;;2.00;2.00;;;;;11.41;99.27;100442.88;4944028;28;9335;-67
2023/12/25 04:23:55;;;;;;;;;3.00;2.75;;;;;11.33;99.77;100454.69;4939268;28;9474;-66
2023/12/25 04:26:22;;;;;;;;;2.00;1.00;;;;;11.33;99.40;100452.84;4938842;28;9419;-67
2023/12/25 04:28:51;;;;;;;;;5.00;4.50;;;;;11.34;99.50;100449.13;4953709;28;9536;-66
2023/12/25 04:31:18;;;;;;;;;2.25;1.25;;;;;11.38;99.15;100462.97;4941633;28;9524;-66
2023/12/25 04:33:45;;;;;;;;;2.00;2.00;;;;;11.38;99.24;100460.28;4938406;28;9575;-66
2023/12/25 04:36:12;;;;;;;;;2.00;1.25;;;;;11.39;98.98;100462.78;4956562;28;10241;-67
2023/12/25 04:38:39;;;;;;;;;2.00;2.00;;;;;11.42;99.00;100463.41;4923668;28;9554;-66
2023/12/25 04:41:06;;;;;;;;;3.33;2.67;;;;;11.39;98.77;100457.41;4945039;28;9640;-66
2023/12/25 04:43:33;;;;;;;;;3.25;1.25;;;;;11.35;98.84;100469.63;4955665;28;10125;-67
2023/12/25 04:46:02;;;;;;;;;1.75;1.00;;;;;11.37;98.97;100467.53;4936923;28;9543;-66
2023/12/25 04:48:29;;;;;;;;;7.00;3.00;;;;;11.44;99.11;100458.63;4927937;28;9513;-66
2023/12/25 04:50:57;;;;;;;;;2.00;2.00;;;;;11.42;98.57;100466.91;4952944;28;9339;-66
2023/12/25 04:53:23;;;;;;;;;1.00;0.33;;;;;11.46;98.58;100464.63;4937445;28;9547;-66
2023/12/25 04:55:51;;;;;;;;;3.00;1.33;;;;;11.51;98.43;100454.91;4934646;28;9418;-66
2023/12/25 04:58:18;;;;;;;;;8.00;2.50;;;;;11.43;98.82;100448.91;4946971;28;9418;-66
2023/12/25 05:00:44;;;;;;;;;1.33;1.33;;;;;11.39;99.26;100449.31;4936039;28;9480;-66
2023/12/25 05:03:12;;;;;;;;;3.00;2.00;;;;;11.45;99.32;100452.19;4935211;28;9456;-66
2023/12/25 05:05:38;;;;;;;;;4.00;1.00;;;;;11.53;98.97;100457.38;4950518;28;9402;-66
2023/12/25 05:08:05;;;;;;;;;2.00;2.00;;;;;11.54;98.87;100467.94;4952695;28;9484;-66
2023/12/25 05:10:31;;;;;;;;;3.00;2.00;;;;;11.48;98.76;100460.69;4953057;28;9411;-67
2023/12/25 05:13:00;;;;;;;;;5.00;2.00;;;;;11.52;98.78;100445.75;4946227;28;9936;-67
2023/12/25 05:15:27;;;;;;;;;1.25;1.00;;;;;11.57;98.76;100445.97;4953686;28;9403;-66
2023/12/25 05:17:54;;;;;;;;;5.33;1.00;;;;;11.55;98.88;100453.44;4954028;28;9483;-66
2023/12/25 05:20:22;;;;;;;;;1.00;1.00;;;;;11.51;99.13;100446.81;4936798;28;9434;-67
2023/12/25 05:22:48;;;;;;;;;3.50;1.50;;;;;11.52;98.99;100459.25;4951899;28;9488;-67
2023/12/25 05:25:14;;;;;;;;;1.75;1.25;;;;;11.54;98.99;100467.94;4953777;28;9470;-67
2023/12/25 05:27:41;;;;;;;;;1.67;1.67;;;;;11.54;98.95;100465.25;4938423;28;9599;-66
2023/12/25 05:30:08;;;;;;;;;2.00;2.00;;;;;11.47;99.19;100458.22;4949381;28;10070;-67
2023/12/25 05:32:35;;;;;;;;;2.75;1.00;;;;;11.39;99.63;100452.00;4960317;28;9610;-67
2023/12/25 05:35:04;;;;;;;;;2.50;1.00;;;;;11.47;100.00;100444.75;4951789;28;9491;-67
2023/12/25 05:37:31;;;;;;;;;1.00;1.00;;;;;11.55;99.75;100460.69;4962278;28;9549;-66
2023/12/25 05:39:57;;;;;;;;;6.50;1.75;;;;;11.48;99.41;100455.31;4935314;28;9462;-67
2023/12/25 05:42:24;;;;;;;;;3.00;1.75;;;;;11.48;99.82;100463.41;4954499;28;9484;-67
2023/12/25 05:44:50;;;;;;;;;5.33;2.67;;;;;11.42;99.70;100464.22;4957067;28;9413;-67
2023/12/25 05:47:17;;;;;;;;;2.67;1.00;;;;;11.40;100.00;100466.31;4956550;28;9339;-67
2023/12/25 05:49:43;;;;;;;;;1.00;1.00;;;;;11.42;100.00;100463.41;4950812;28;9398;-65
2023/12/25 05:52:10;;;;;;;;;2.67;0.00;;;;;11.41;100.00;100459.88;4951439;28;9488;-67
2023/12/25 05:54:37;;;;;;;;;0.00;0.00;;;;;11.35;100.00;100464.25;4953039;28;9361;-67
2023/12/25 05:57:03;;;;;;;;;3.33;2.00;;;;;11.35;100.00;100472.34;4934700;28;9335;-66
2023/12/25 05:59:30;;;;;;;;;1.00;1.00;;;;;11.40;100.00;100474.41;4952882;28;9402;-67
2023/12/25 06:01:56;;;;;;;;;2.00;1.00;;;;;11.34;99.95;100484.16;4949742;28;10114;-67
2023/12/25 06:04:23;;;;;;;;;1.00;1.00;;;;;11.31;99.54;100471.09;4949005;28;9359;-67
2023/12/25 06:06:50;;;;;;;;;0.00;0.00;;;;;11.36;99.42;100465.06;4952929;28;9495;-66
2023/12/25 06:09:17;;;;;;;;;1.00;1.00;;;;;11.40;99.01;100463.63;4952349;28;9434;-66
2023/12/25 06:11:43;;;;;;;;;2.00;1.00;;;;;11.41;98.78;100469.81;4950439;28;9401;-66
2023/12/25 06:14:10;;;;;;;;;2.00;2.00;;;;;11.34;98.70;100473.38;4951178;28;9596;-66
2023/12/25 06:16:36;;;;;;;;;0.25;0.25;;;;;11.33;98.33;100474.38;4952993;28;9409;-66
2023/12/25 06:19:03;;;;;;;;;0.67;0.33;;;;;11.30;98.07;100471.28;4953225;28;10214;-66
2023/12/25 06:21:29;;;;;;;;;1.00;1.00;;;;;11.33;97.80;100478.94;4949986;28;9430;-67
2023/12/25 06:23:56;;;;;;;;;1.00;1.00;;;;;11.29;97.05;100483.09;4951320;28;9449;-66
2023/12/25 06:26:23;;;;;;;;;0.50;0.00;;;;;11.35;97.10;100476.91;4939085;28;9607;-67
2023/12/25 06:28:49;;;;;;;;;1.00;1.00;;;;;11.36;96.76;100479.38;4942251;28;9402;-67
2023/12/25 06:31:15;;;;;;;;;0.00;0.00;;;;;11.35;96.81;100485.81;4909844;28;9623;-67
2023/12/25 06:33:42;;;;;;;;;1.00;0.00;;;;;11.36;96.48;100490.16;4947657;28;9450;-66
2023/12/25 06:36:09;;;;;;;;;1.00;1.00;;;;;11.27;96.20;100479.81;4953458;28;9460;-66
2023/12/25 06:38:35;;;;;;;;;4.75;2.00;;;;;11.34;95.97;100491.38;4948705;28;9410;-67
2023/12/25 06:41:03;;;;;;;;;1.00;0.25;;;;;11.37;95.65;100493.66;4941320;28;9470;-67
2023/12/25 06:43:30;;;;;;;;;0.00;0.00;;;;;11.41;95.62;100488.69;4959736;28;9452;-67
2023/12/25 06:45:57;;;;;;;;;0.25;0.00;;;;;11.44;95.62;100499.06;4950407;28;10177;-67
2023/12/25 06:48:23;;;;;;;;;1.00;1.00;;;;;11.42;95.30;100491.16;4943467;28;9644;-67
2023/12/25 06:50:50;;;;;;;;;2.00;1.00;;;;;11.39;95.33;100497.81;4949354;28;10158;-66
2023/12/25 06:53:17;;;;;;;;;1.00;1.00;;;;;11.33;95.24;100504.03;4952465;28;9480;-66
2023/12/25 06:55:43;;;;;;;;;0.25;0.25;;;;;11.35;95.01;100522.72;4952098;28;9409;-67
2023/12/25 06:58:10;;;;;;;;;1.00;1.00;;;;;11.32;94.95;100512.34;4942956;28;9575;-67
2023/12/25 07:00:36;;;;;;;;;1.00;1.00;;;;;11.31;94.60;100503.41;4952427;28;10076;-70
2023/12/25 07:03:03;;;;;;;;;1.00;0.33;;;;;11.33;94.44;100509.41;4935743;28;10099;-69
2023/12/25 07:05:30;;;;;;;;;1.25;1.00;;;;;11.31;94.03;100506.13;4951180;28;9434;-71
2023/12/25 07:07:56;;;;;;;;;2.00;1.00;;;;;11.24;93.94;100513.38;4946904;28;9437;-69
2023/12/25 07:10:23;;;;;;;;;0.25;0.25;;;;;11.14;93.98;100515.66;4948410;29;9491;-69
2023/12/25 07:12:50;;;;;;;;;0.50;0.25;;;;;11.14;94.01;100510.25;4916358;29;9578;-70
2023/12/25 07:15:18;;;;;;;;;1.25;1.25;;;;;11.11;93.82;100518.75;4934930;28;9586;-69
2023/12/25 07:17:44;;;;;;;;;1.25;0.25;;;;;11.16;93.93;100526.22;4944967;28;9563;-70
2023/12/25 07:20:11;;;;;;;;;1.75;1.75;;;;;11.21;93.78;100523.72;4954442;28;9558;-70
2023/12/25 07:22:37;;;;;;;;;1.00;1.00;;;;;11.22;93.72;100528.06;4940881;28;9438;-69
2023/12/25 07:25:06;;;;;;;;;1.00;1.00;;;;;11.18;93.88;100522.28;4959836;28;9618;-70
2023/12/25 07:27:34;;;;;;;;;0.00;0.00;;;;;11.16;93.49;100510.03;4942460;28;9516;-68
2023/12/25 07:30:01;;;;;;;;;0.50;0.50;;;;;11.19;93.52;100517.72;4948960;28;10417;-68
2023/12/25 07:32:28;;;;;;;;;0.00;0.00;;;;;11.18;93.45;100521.44;4945659;28;9499;-69
2023/12/25 07:34:55;;;;;;;;;0.00;0.00;;;;;11.23;93.49;100521.66;4936799;28;9488;-68
2023/12/25 07:37:21;;;;;;;;;0.00;0.00;;;;;11.16;92.99;100535.13;4947494;28;9463;-69
2023/12/25 07:39:48;;;;;;;;;1.00;1.00;;;;;11.14;92.96;100534.50;4937325;28;9572;-70
2023/12/25 07:42:14;;;;;;;;;0.00;0.00;;;;;11.20;93.05;100527.47;4955284;28;9536;-70
2023/12/25 07:44:41;;;;;;;;;0.25;0.00;;;;;11.25;92.74;100528.50;4954394;28;9413;-70
2023/12/25 07:47:08;;;;;;;;;0.00;0.00;;;;;11.25;92.81;100531.19;4952859;28;9512;-69
2023/12/25 07:49:34;;;;;;;;;1.75;1.00;;;;;11.23;92.55;100535.13;4954399;28;10222;-69
2023/12/25 07:52:01;;;;;;;;;3.00;0.00;;;;;11.21;92.45;100548.78;4955670;28;9735;-70
2023/12/25 07:54:27;;;;;;;;;0.75;0.00;;;;;11.24;92.78;100559.16;4955858;28;9703;-68
2023/12/25 07:56:54;;;;;;;;;0.00;0.00;;;;;11.20;92.75;100568.69;4954720;28;9482;-70
2023/12/25 07:59:21;;;;;;;;;1.00;0.00;;;;;11.18;92.87;100554.63;4951371;28;9589;-70
2023/12/25 08:01:47;;;;;;;;;1.25;0.00;;;;;11.19;93.07;100563.53;4919839;29;9590;-68
2023/12/25 08:04:14;;;;;;;;;1.75;1.50;;;;;11.21;93.10;100561.44;4936411;29;9546;-69
2023/12/25 08:06:40;;;;;;;;;4.00;2.00;;;;;11.17;93.48;100571.78;4947590;28;10450;-69
2023/12/25 08:09:09;;;;;;;;;6.00;2.00;;;;;11.22;93.83;100569.34;4939329;28;9500;-70
2023/12/25 08:11:36;;;;;;;;;1.25;0.75;;;;;11.23;94.01;100573.69;4959862;28;9473;-68
2023/12/25 08:14:02;;;;;;;;;1.50;0.00;;;;;11.29;94.22;100578.22;4957196;28;10500;-70
2023/12/25 08:16:29;;;;;;;;;1.00;1.00;;;;;11.29;94.35;100572.84;4954043;28;9697;-69
2023/12/25 08:18:55;;;;;;;;;0.00;0.00;;;;;11.25;94.65;100560.81;4952232;28;9563;-70
2023/12/25 08:21:23;;;;;;;;;0.25;0.25;;;;;11.26;94.86;100556.25;4955385;28;9609;-68
2023/12/25 08:23:49;;;;;;;;;1.00;1.00;;;;;11.24;95.22;100569.94;4937840;28;9417;-70
2023/12/25 08:26:16;;;;;;;;;2.00;0.00;;;;;11.20;95.69;100560.63;4936702;28;9597;-66
2023/12/25 08:28:43;;;;;;;;;1.25;1.00;;;;;11.21;95.93;100554.19;4955281;28;10445;-69
2023/12/25 08:31:09;;;;;;;;;1.00;0.00;;;;;11.25;95.94;100568.91;4952614;28;9506;-69
2023/12/25 08:33:36;;;;;;;;;4.00;1.00;;;;;11.14;96.31;100572.22;4955021;28;9556;-70
2023/12/25 08:36:03;;;;;;;;;0.00;0.00;;;;;11.20;96.77;100571.38;4952699;28;9483;-69
2023/12/25 08:38:29;;;;;;;;;1.00;1.00;;;;;11.25;96.52;100587.75;4950881;28;9480;-69
2023/12/25 08:40:57;;;;;;;;;0.50;0.00;;;;;11.23;96.57;100589.84;4955188;28;9330;-70
2023/12/25 08:43:23;;;;;;;;;2.25;1.00;;;;;11.25;96.69;100585.06;4937947;28;9413;-69
2023/12/25 08:45:50;;;;;;;;;0.00;0.00;;;;;11.26;96.81;100592.13;4936492;28;9435;-70
2023/12/25 08:48:16;;;;;;;;;1.00;1.00;;;;;11.29;97.04;100589.00;4951792;28;10467;-65
2023/12/25 08:50:43;;;;;;;;;0.00;0.00;;;;;11.32;96.71;100591.31;4954300;28;9523;-67
2023/12/25 08:53:10;;;;;;;;;1.25;0.00;;;;;11.35;96.77;100603.56;4937480;28;9564;-65
2023/12/25 08:55:37;;;;;;;;;0.00;0.00;;;;;11.38;96.89;100593.19;4953150;28;9387;-70
2023/12/25 08:58:03;;;;;;;;;1.00;1.00;;;;;11.37;96.56;100601.47;4947409;28;9510;-67
2023/12/25 09:00:30;;;;;;;;;0.75;0.00;;;;;11.34;96.58;100600.03;4954407;28;9342;-67
2023/12/25 09:02:56;;;;;;;;;0.00;0.00;;;;;11.37;97.02;100599.59;4937404;28;10255;-67
2023/12/25 09:05:23;;;;;;;;;0.00;0.00;;;;;11.38;97.12;100592.34;4953664;28;9553;-67
2023/12/25 09:07:50;;;;;;;;;2.50;1.00;;;;;11.43;97.27;100580.97;4936376;28;10150;-67
2023/12/25 09:10:16;;;;;;;;;2.00;1.00;;;;;11.44;97.11;100590.69;4954098;28;9339;-69
2023/12/25 09:12:43;;;;;;;;;1.67;1.00;;;;;11.45;96.93;100582.41;4958049;28;9432;-68
2023/12/25 09:15:10;;;;;;;;;0.00;0.00;;;;;11.40;97.33;100590.28;4960258;28;9335;-68
2023/12/25 09:17:37;;;;;;;;;1.00;1.00;;;;;11.41;97.57;100601.88;4953330;28;9608;-68
2023/12/25 09:20:04;;;;;;;;;0.00;0.00;;;;;11.42;97.46;100604.38;4935762;28;10102;-69
2023/12/25 09:22:31;;;;;;;;;0.33;0.00;;;;;11.41;97.10;100596.50;4952758;28;9527;-68
2023/12/25 09:24:57;;;;;;;;;2.00;0.00;;;;;11.45;97.36;100613.91;4947739;28;9324;-68
2023/12/25 09:27:24;;;;;;;;;0.00;0.00;;;;;11.46;97.61;100619.09;4927180;28;9269;-67
2023/12/25 09:29:51;;;;;;;;;0.67;0.00;;;;;11.47;97.50;100609.16;4953235;28;9318;-68
2023/12/25 09:32:17;;;;;;;;;1.00;1.00;;;;;11.43;97.23;100613.31;4955853;28;9348;-69
2023/12/25 09:34:44;;;;;;;;;0.67;0.00;;;;;11.42;97.48;100604.38;4950901;28;10095;-69
2023/12/25 09:37:25;;;;;;;;;0.00;0.00;;;;;11.45;97.41;100600.44;4954513;28;9323;-69
2023/12/25 09:39:52;;;;;;;;;0.00;0.00;;;;;11.49;97.69;100618.69;4959635;28;9491;-68
2023/12/25 09:42:19;;;;;;;;;5.33;0.00;;;;;11.51;97.17;100627.41;4952283;28;9263;-69
2023/12/25 09:44:49;;;;;;;;;1.00;1.00;;;;;11.49;97.40;100640.25;4963742;28;9271;-68
2023/12/25 09:47:17;;;;;;;;;1.00;1.00;;;;;11.47;97.61;100636.94;4953793;28;9331;-68
2023/12/25 09:49:45;;;;;;;;;1.00;1.00;;;;;11.50;97.53;100630.28;4952253;28;9183;-69
2023/12/25 09:52:15;;;;;;;;;1.33;1.00;;;;;11.50;97.60;100633.81;4938327;28;9411;-68
2023/12/25 09:54:42;;;;;;;;;0.00;0.00;;;;;11.55;97.63;100636.75;4932741;28;9323;-69
2023/12/25 09:57:12;;;;;;;;;0.00;0.00;;;;;11.51;97.38;100638.19;4956755;28;9325;-69
2023/12/25 09:59:40;;;;;;;;;0.50;0.00;;;;;11.55;97.54;100636.75;4939630;28;9347;-69
2023/12/25 10:02:06;;;;;;;;;1.00;0.00;;;;;11.55;97.13;100636.75;4954678;28;9402;-70
2023/12/25 10:04:36;;;;;;;;;2.00;0.75;;;;;11.49;96.88;100636.72;4951419;28;9328;-69
2023/12/25 10:07:05;;;;;;;;;0.00;0.00;;;;;11.42;97.60;100641.28;4933880;29;9572;-69
2023/12/25 10:09:33;;;;;;;;;0.67;0.00;;;;;11.47;97.47;100645.03;4937589;28;9316;-67
2023/12/25 10:11:59;;;;;;;;;2.00;0.00;;;;;11.47;97.01;100644.22;4949103;28;9352;-68
2023/12/25 10:14:27;;;;;;;;;0.33;0.33;;;;;11.50;96.86;100623.03;4952679;28;9416;-67
2023/12/25 10:16:57;;;;;;;;;0.00;0.00;;;;;11.49;96.61;100632.16;4952958;28;9424;-67
2023/12/25 10:19:25;;;;;;;;;1.50;0.00;;;;;11.57;96.44;100647.31;4952655;28;9390;-65
2023/12/25 10:21:53;;;;;;;;;1.67;0.00;;;;;11.57;96.18;100653.53;4933509;28;10297;-66
2023/12/25 10:24:26;;;;;;;;;0.00;0.00;;;;;11.57;95.77;100639.22;4945678;28;9247;-67
2023/12/25 10:26:54;;;;;;;;;1.00;1.00;;;;;11.55;95.49;100636.75;4934977;28;9422;-67
2023/12/25 10:29:32;;;;;;;;;1.00;0.33;;;;;11.59;95.35;100639.88;4952672;28;9570;-67
2023/12/25 10:32:15;;;;;;;;;2.00;2.00;;;;;11.56;94.83;100642.97;4952666;28;10207;-66
2023/12/25 10:34:42;;;;;;;;;3.33;2.67;;;;;11.54;94.62;100640.47;4943401;28;9565;-67
2023/12/25 10:37:09;;;;;;;;;3.67;1.00;;;;;11.51;94.09;100643.59;4946628;28;9317;-66
2023/12/25 10:39:35;;;;;;;;;0.33;0.33;;;;;11.56;94.09;100634.88;4926035;28;9565;-67
2023/12/25 10:42:02;;;;;;;;;0.00;0.00;;;;;11.64;93.64;100635.50;4956128;28;9273;-66
2023/12/25 10:44:32;;;;;;;;;0.33;0.33;;;;;11.68;93.17;100638.63;4950320;28;9174;-67
2023/12/25 10:47:02;;;;;;;;;1.00;0.00;;;;;11.71;92.66;100634.66;4919268;28;9255;-67
2023/12/25 10:49:30;;;;;;;;;0.00;0.00;;;;;11.71;92.27;100630.13;4934670;28;9264;-67
2023/12/25 10:51:59;;;;;;;;;2.75;0.50;;;;;11.68;92.10;100635.09;4934379;28;9393;-68
2023/12/25 10:54:27;;;;;;;;;1.00;1.00;;;;;11.63;91.53;100639.25;4945844;28;9403;-65
2023/12/25 10:56:54;;;;;;;;;0.67;0.67;;;;;11.68;91.35;100644.00;4950977;28;9334;-66
2023/12/25 10:59:32;;;;;;;;;1.33;1.00;;;;;11.70;91.27;100638.41;4952135;28;9267;-68
2023/12/25 11:02:05;;;;;;;;;0.00;0.00;;;;;11.71;91.07;100645.44;4935527;28;9273;-67
2023/12/25 11:04:32;;;;;;;;;2.00;0.00;;;;;11.78;91.30;100643.59;4950670;28;9254;-67
2023/12/25 11:07:00;;;;;;;;;2.00;1.50;;;;;11.68;90.72;100644.00;4951994;28;9307;-68
2023/12/25 11:09:26;;;;;;;;;1.00;1.00;;;;;11.73;90.71;100646.91;4934852;28;9430;-67
2023/12/25 11:11:55;;;;;;;;;0.67;0.00;;;;;11.69;90.42;100651.06;4933060;28;9370;-67
2023/12/25 11:14:23;;;;;;;;;0.00;0.00;;;;;11.73;90.13;100655.00;4946198;29;10200;-67
2023/12/25 11:16:50;;;;;;;;;0.33;0.33;;;;;11.61;90.15;100640.47;4946372;29;9229;-67
2023/12/25 11:19:17;;;;;;;;;2.00;1.00;;;;;11.61;90.28;100657.47;4952212;29;9327;-68
2023/12/25 11:21:44;;;;;;;;;2.00;1.00;;;;;11.67;90.29;100655.00;4956473;28;9340;-68
2023/12/25 11:24:11;;;;;;;;;0.33;0.00;;;;;11.74;90.11;100653.97;4950644;29;9272;-67
2023/12/25 11:26:38;;;;;;;;;0.00;0.00;;;;;11.78;90.49;100639.03;4949293;28;9200;-67
2023/12/25 11:29:06;;;;;;;;;0.00;0.00;;;;;11.80;89.96;100642.38;4951855;29;9315;-66
2023/12/25 11:31:45;;;;;;;;;0.00;0.00;;;;;11.86;90.04;100654.22;4955300;28;9300;-67